Rennes, France

6:06 AM CEST on August 29, 2015 (GMT +0200)
Saint Jacques | | Change Station
CLOSE
Current Station
Airport
Location: Rennes,
Elevation: 121 ft
Nearby Weather Stations

Elev 121 ft 48.07 °N, 1.73 °W | Updated 6 minutes ago

Overcast
Overcast
55 °F
Feels Like 55 °F
N
0
Wind Variable Wind from North

Today
High -- | Low -- °F
--% Chance of Precip.
Yesterday
High -- | Low -- °F
Precip. -- in
7:20 AM 8:54 PM
Waxing Gibbous, 99% visible
Pressure 30.06 in
Visibility 6.2 miles
Clouds Few 2300 ft
Overcast 7200 ft
Dew Point 54 °F
Humidity 94%
Rainfall 0.00 in
Snow Depth Not available.
UV 0 out of 12
Pollen Not available.
Air Quality Not available.
Flu Activity Not available.
METAR LFRN 290400Z AUTO 00000KT 9999 FEW023 OVC072 13/12 Q1018
Pressure 30.06 in
Visibility 6.2 miles
Clouds Few 2300 ft
Overcast 7200 ft
Dew Point 54 °F
Humidity 94%
Rainfall 0.00 in
Snow Depth Not available.
UV 0 out of 12
Pollen Not available.
Air Quality Not available.
Flu Activity Not available.
METAR LFRN 290400Z AUTO 00000KT 9999 FEW023 OVC072 13/12 Q1018

10-Day Weather Forecast

×

Almanac

Astronomy

Aug. 29, 2015 Rise Set
Actual Time
Civil Twilight
Nautical Twilight
Astronomical Twilight
Moon
Length of Visible Light
Length of Day
Tomorrow will be .
, % of the Moon is Illuminated

Today's Extremes

Country Highs Country Lows

Community

WunderPhotos

Upload Photos

1,850,611 photos uploaded!

WunderBlogs® & News

Nearby

Air Quality

  Air Quality AQ Index Pollutant
Not available.

Snow Depth

Station Depth Elevation

Earthquake Activity

City Distance Mag. Time & Date
Minimum magnitude displayed is 2.5.

Coastal Water Temperatures

Place Temperature

Stations

Nearby Weather Stations

Station Location Temp. Windchill Dew Point Humidity Wind Precip. Elev Updated Type